sensor_id;sensor_type;location;lat;lon;timestamp;pressure;altitude;pressure_sealevel;temperature;humidity
58686;BME280;44465;53.206;-6.106;2023-12-04T00:01:45;100132.34;;;21.34;47.65
58686;BME280;44465;53.206;-6.106;2023-12-04T00:04:12;100141.34;;;21.33;47.36
58686;BME280;44465;53.206;-6.106;2023-12-04T00:06:37;100133.31;;;21.33;47.22
58686;BME280;44465;53.206;-6.106;2023-12-04T00:09:03;100122.91;;;21.28;47.35
58686;BME280;44465;53.206;-6.106;2023-12-04T00:11:28;100121.00;;;21.30;47.26
58686;BME280;44465;53.206;-6.106;2023-12-04T00:13:53;100120.44;;;21.25;47.12
58686;BME280;44465;53.206;-6.106;2023-12-04T00:16:19;100121.19;;;21.27;47.49
58686;BME280;44465;53.206;-6.106;2023-12-04T00:18:44;100112.59;;;21.22;47.20
58686;BME280;44465;53.206;-6.106;2023-12-04T00:21:10;100102.19;;;21.17;47.21
58686;BME280;44465;53.206;-6.106;2023-12-04T00:23:35;100110.91;;;21.21;47.26
58686;BME280;44465;53.206;-6.106;2023-12-04T00:26:01;100116.91;;;21.25;47.18
58686;BME280;44465;53.206;-6.106;2023-12-04T00:28:28;100113.47;;;21.22;47.25
58686;BME280;44465;53.206;-6.106;2023-12-04T00:30:54;100114.13;;;21.26;47.19
58686;BME280;44465;53.206;-6.106;2023-12-04T00:33:19;100111.56;;;21.25;46.98
58686;BME280;44465;53.206;-6.106;2023-12-04T00:35:45;100115.84;;;21.27;47.08
58686;BME280;44465;53.206;-6.106;2023-12-04T00:38:10;100078.97;;;21.18;46.92
58686;BME280;44465;53.206;-6.106;2023-12-04T00:40:36;100099.00;;;21.25;47.07
58686;BME280;44465;53.206;-6.106;2023-12-04T00:43:01;100093.00;;;21.21;47.01
58686;BME280;44465;53.206;-6.106;2023-12-04T00:45:27;100087.66;;;21.21;47.12
58686;BME280;44465;53.206;-6.106;2023-12-04T00:47:52;100090.97;;;21.25;47.05
58686;BME280;44465;53.206;-6.106;2023-12-04T00:50:17;100086.56;;;21.24;47.04
58686;BME280;44465;53.206;-6.106;2023-12-04T00:52:43;100065.78;;;21.15;46.98
58686;BME280;44465;53.206;-6.106;2023-12-04T00:55:08;100075.41;;;21.17;46.98
58686;BME280;44465;53.206;-6.106;2023-12-04T00:57:34;100077.91;;;21.20;46.87
58686;BME280;44465;53.206;-6.106;2023-12-04T00:59:59;100078.00;;;21.19;47.07
58686;BME280;44465;53.206;-6.106;2023-12-04T01:02:25;100076.50;;;21.15;46.97
58686;BME280;44465;53.206;-6.106;2023-12-04T01:04:50;100060.63;;;21.12;47.14
58686;BME280;44465;53.206;-6.106;2023-12-04T01:07:16;100070.94;;;21.18;46.71
58686;BME280;44465;53.206;-6.106;2023-12-04T01:09:41;100068.25;;;21.18;46.62
58686;BME280;44465;53.206;-6.106;2023-12-04T01:12:07;100046.50;;;21.10;46.93
58686;BME280;44465;53.206;-6.106;2023-12-04T01:14:32;100048.00;;;21.14;46.81
58686;BME280;44465;53.206;-6.106;2023-12-04T01:19:23;100055.72;;;21.18;46.69
58686;BME280;44465;53.206;-6.106;2023-12-04T01:21:49;100046.41;;;21.11;46.91
58686;BME280;44465;53.206;-6.106;2023-12-04T01:24:15;100050.47;;;21.17;47.11
58686;BME280;44465;53.206;-6.106;2023-12-04T01:26:40;100047.91;;;21.15;46.91
58686;BME280;44465;53.206;-6.106;2023-12-04T01:29:06;100039.97;;;21.14;46.77
58686;BME280;44465;53.206;-6.106;2023-12-04T01:31:32;100034.94;;;21.09;46.90
58686;BME280;44465;53.206;-6.106;2023-12-04T01:33:57;100028.63;;;21.10;46.74
58686;BME280;44465;53.206;-6.106;2023-12-04T01:36:23;100031.41;;;21.08;46.84
58686;BME280;44465;53.206;-6.106;2023-12-04T01:38:48;100025.19;;;21.08;47.05
58686;BME280;44465;53.206;-6.106;2023-12-04T01:41:14;100015.75;;;21.02;46.71
58686;BME280;44465;53.206;-6.106;2023-12-04T01:43:39;100027.78;;;21.10;46.81
58686;BME280;44465;53.206;-6.106;2023-12-04T01:46:06;100015.53;;;21.05;46.92
58686;BME280;44465;53.206;-6.106;2023-12-04T01:48:32;100022.41;;;21.10;46.73
58686;BME280;44465;53.206;-6.106;2023-12-04T01:50:58;100017.16;;;21.08;46.71
58686;BME280;44465;53.206;-6.106;2023-12-04T01:53:25;100025.09;;;21.10;46.89
58686;BME280;44465;53.206;-6.106;2023-12-04T01:55:51;100022.63;;;21.06;46.91
58686;BME280;44465;53.206;-6.106;2023-12-04T01:58:17;100018.34;;;21.04;46.80
58686;BME280;44465;53.206;-6.106;2023-12-04T02:00:46;100023.47;;;21.07;46.61
58686;BME280;44465;53.206;-6.106;2023-12-04T02:03:11;100017.56;;;21.02;46.86
58686;BME280;44465;53.206;-6.106;2023-12-04T02:05:37;100027.97;;;21.06;46.64
58686;BME280;44465;53.206;-6.106;2023-12-04T02:08:04;100020.91;;;21.05;46.81
58686;BME280;44465;53.206;-6.106;2023-12-04T02:10:29;100024.72;;;21.01;46.65
58686;BME280;44465;53.206;-6.106;2023-12-04T02:12:55;100020.06;;;21.05;46.73
58686;BME280;44465;53.206;-6.106;2023-12-04T02:15:21;100023.69;;;21.04;46.69
58686;BME280;44465;53.206;-6.106;2023-12-04T02:17:46;100006.31;;;20.97;46.75
58686;BME280;44465;53.206;-6.106;2023-12-04T02:20:13;100018.41;;;21.02;47.01
58686;BME280;44465;53.206;-6.106;2023-12-04T02:22:39;100004.38;;;20.99;46.88
58686;BME280;44465;53.206;-6.106;2023-12-04T02:25:05;99993.47;;;20.89;46.48
58686;BME280;44465;53.206;-6.106;2023-12-04T02:27:52;100019.28;;;21.03;46.56
58686;BME280;44465;53.206;-6.106;2023-12-04T02:30:21;100015.75;;;21.02;46.87
58686;BME280;44465;53.206;-6.106;2023-12-04T02:32:48;100008.91;;;20.98;46.86
58686;BME280;44465;53.206;-6.106;2023-12-04T02:35:15;100020.25;;;21.02;46.67
58686;BME280;44465;53.206;-6.106;2023-12-04T02:37:41;100026.13;;;20.94;46.92
58686;BME280;44465;53.206;-6.106;2023-12-04T02:40:07;100015.41;;;20.94;46.74
58686;BME280;44465;53.206;-6.106;2023-12-04T02:42:33;100007.56;;;20.91;46.66
58686;BME280;44465;53.206;-6.106;2023-12-04T02:44:59;100022.47;;;20.95;46.67
58686;BME280;44465;53.206;-6.106;2023-12-04T02:47:24;100014.44;;;20.95;46.42
58686;BME280;44465;53.206;-6.106;2023-12-04T02:49:50;100019.69;;;20.97;46.50
58686;BME280;44465;53.206;-6.106;2023-12-04T02:52:16;100015.53;;;20.92;46.57
58686;BME280;44465;53.206;-6.106;2023-12-04T02:54:41;100012.72;;;20.94;46.48
58686;BME280;44465;53.206;-6.106;2023-12-04T02:57:07;100018.72;;;20.98;46.70
58686;BME280;44465;53.206;-6.106;2023-12-04T02:59:32;100014.66;;;20.92;46.58
58686;BME280;44465;53.206;-6.106;2023-12-04T03:01:58;100012.72;;;20.94;46.72
58686;BME280;44465;53.206;-6.106;2023-12-04T03:04:23;100007.38;;;20.94;46.43
58686;BME280;44465;53.206;-6.106;2023-12-04T03:06:48;100006.63;;;20.92;46.43
58686;BME280;44465;53.206;-6.106;2023-12-04T03:09:14;100008.25;;;20.95;46.55
58686;BME280;44465;53.206;-6.106;2023-12-04T03:11:40;100009.94;;;20.96;46.45
58686;BME280;44465;53.206;-6.106;2023-12-04T03:14:06;100001.19;;;20.94;46.30
58686;BME280;44465;53.206;-6.106;2023-12-04T03:16:32;100001.19;;;20.94;46.56
58686;BME280;44465;53.206;-6.106;2023-12-04T03:18:57;99999.66;;;20.89;46.64
58686;BME280;44465;53.206;-6.106;2023-12-04T03:21:23;100013.03;;;20.89;46.42
58686;BME280;44465;53.206;-6.106;2023-12-04T03:23:48;100011.25;;;20.90;46.31
58686;BME280;44465;53.206;-6.106;2023-12-04T03:26:14;100002.34;;;20.89;46.52
58686;BME280;44465;53.206;-6.106;2023-12-04T03:28:39;99995.19;;;20.90;46.47
58686;BME280;44465;53.206;-6.106;2023-12-04T03:31:06;100001.25;;;20.92;46.34
58686;BME280;44465;53.206;-6.106;2023-12-04T03:33:31;99983.06;;;20.84;46.30
58686;BME280;44465;53.206;-6.106;2023-12-04T03:35:58;99996.88;;;20.91;46.59
58686;BME280;44465;53.206;-6.106;2023-12-04T03:38:24;99988.13;;;20.89;46.57
58686;BME280;44465;53.206;-6.106;2023-12-04T03:40:49;99991.44;;;20.92;46.55
58686;BME280;44465;53.206;-6.106;2023-12-04T03:43:14;99996.88;;;20.91;46.56
58686;BME280;44465;53.206;-6.106;2023-12-04T03:45:40;99970.84;;;20.80;46.50
58686;BME280;44465;53.206;-6.106;2023-12-04T03:48:05;99987.34;;;20.87;46.42
58686;BME280;44465;53.206;-6.106;2023-12-04T03:50:31;99987.66;;;20.82;46.42
58686;BME280;44465;53.206;-6.106;2023-12-04T03:52:56;99975.88;;;20.85;46.23
58686;BME280;44465;53.206;-6.106;2023-12-04T03:55:22;99981.25;;;20.85;46.40
58686;BME280;44465;53.206;-6.106;2023-12-04T03:57:47;99970.72;;;20.82;46.64
58686;BME280;44465;53.206;-6.106;2023-12-04T04:00:13;99968.19;;;20.80;46.53
58686;BME280;44465;53.206;-6.106;2023-12-04T04:02:39;99949.91;;;20.72;46.48
58686;BME280;44465;53.206;-6.106;2023-12-04T04:05:05;99975.88;;;20.85;46.56
58686;BME280;44465;53.206;-6.106;2023-12-04T04:07:30;99970.34;;;20.88;46.46
58686;BME280;44465;53.206;-6.106;2023-12-04T04:09:56;99966.91;;;20.86;46.42
58686;BME280;44465;53.206;-6.106;2023-12-04T04:12:22;99963.34;;;20.85;46.36
58686;BME280;44465;53.206;-6.106;2023-12-04T04:14:47;99964.34;;;20.84;46.31
58686;BME280;44465;53.206;-6.106;2023-12-04T04:17:13;99972.25;;;20.86;46.50
58686;BME280;44465;53.206;-6.106;2023-12-04T04:19:38;99963.03;;;20.77;46.39
58686;BME280;44465;53.206;-6.106;2023-12-04T04:22:04;99965.06;;;20.86;46.33
58686;BME280;44465;53.206;-6.106;2023-12-04T04:24:29;99962.31;;;20.88;46.58
58686;BME280;44465;53.206;-6.106;2023-12-04T04:26:55;99957.03;;;20.86;46.25
58686;BME280;44465;53.206;-6.106;2023-12-04T04:29:20;99947.59;;;20.81;46.50
58686;BME280;44465;53.206;-6.106;2023-12-04T04:31:46;99938.47;;;20.70;46.37
58686;BME280;44465;53.206;-6.106;2023-12-04T04:34:11;99971.28;;;20.87;46.54
58686;BME280;44465;53.206;-6.106;2023-12-04T04:36:37;99953.94;;;20.80;46.18
58686;BME280;44465;53.206;-6.106;2023-12-04T04:39:03;99962.41;;;20.86;46.34
58686;BME280;44465;53.206;-6.106;2023-12-04T04:41:28;99958.88;;;20.86;46.26
58686;BME280;44465;53.206;-6.106;2023-12-04T04:43:53;99948.16;;;20.86;46.43
58686;BME280;44465;53.206;-6.106;2023-12-04T04:46:19;99958.22;;;20.82;46.42
58686;BME280;44465;53.206;-6.106;2023-12-04T04:48:44;99958.69;;;20.89;46.54
58686;BME280;44465;53.206;-6.106;2023-12-04T04:51:10;99959.41;;;20.91;46.47
58686;BME280;44465;53.206;-6.106;2023-12-04T04:53:35;99961.34;;;20.89;46.50
58686;BME280;44465;53.206;-6.106;2023-12-04T04:56:01;99959.63;;;20.88;46.76
58686;BME280;44465;53.206;-6.106;2023-12-04T04:58:26;99950.97;;;20.84;46.58
58686;BME280;44465;53.206;-6.106;2023-12-04T05:00:52;99959.63;;;20.88;46.48
58686;BME280;44465;53.206;-6.106;2023-12-04T05:03:17;99954.28;;;20.88;46.56
58686;BME280;44465;53.206;-6.106;2023-12-04T05:05:43;99945.06;;;20.79;46.78
58686;BME280;44465;53.206;-6.106;2023-12-04T05:08:08;99955.44;;;20.84;46.43
58686;BME280;44465;53.206;-6.106;2023-12-04T05:10:33;99952.13;;;20.80;46.59
58686;BME280;44465;53.206;-6.106;2023-12-04T05:12:59;99951.03;;;20.83;46.53
58686;BME280;44465;53.206;-6.106;2023-12-04T05:15:24;99966.69;;;20.89;46.35
58686;BME280;44465;53.206;-6.106;2023-12-04T05:17:51;99964.97;;;20.88;46.39
58686;BME280;44465;53.206;-6.106;2023-12-04T05:20:16;99966.69;;;20.89;46.57
58686;BME280;44465;53.206;-6.106;2023-12-04T05:22:42;99972.91;;;20.89;46.34
58686;BME280;44465;53.206;-6.106;2023-12-04T05:25:07;99950.84;;;20.86;46.49
58686;BME280;44465;53.206;-6.106;2023-12-04T05:27:33;99957.59;;;20.79;46.31
58686;BME280;44465;53.206;-6.106;2023-12-04T05:29:58;99951.81;;;20.85;46.54
58686;BME280;44465;53.206;-6.106;2023-12-04T05:32:24;99960.69;;;20.85;46.29
58686;BME280;44465;53.206;-6.106;2023-12-04T05:34:49;99964.09;;;20.87;46.30
58686;BME280;44465;53.206;-6.106;2023-12-04T05:37:15;99968.63;;;20.87;46.62
58686;BME280;44465;53.206;-6.106;2023-12-04T05:39:41;99970.41;;;20.86;46.61
58686;BME280;44465;53.206;-6.106;2023-12-04T05:42:06;99950.59;;;20.76;46.36
58686;BME280;44465;53.206;-6.106;2023-12-04T05:44:33;99973.22;;;20.85;46.61
58686;BME280;44465;53.206;-6.106;2023-12-04T05:46:59;99962.63;;;20.83;46.61
58686;BME280;44465;53.206;-6.106;2023-12-04T05:49:24;99969.00;;;20.81;46.56
58686;BME280;44465;53.206;-6.106;2023-12-04T05:51:49;99979.31;;;20.87;46.47
58686;BME280;44465;53.206;-6.106;2023-12-04T05:54:15;99961.09;;;20.79;46.61
58686;BME280;44465;53.206;-6.106;2023-12-04T05:56:40;99977.59;;;20.86;46.39
58686;BME280;44465;53.206;-6.106;2023-12-04T05:59:06;99979.53;;;20.84;46.41
58686;BME280;44465;53.206;-6.106;2023-12-04T06:01:31;99964.94;;;20.75;46.29
58686;BME280;44465;53.206;-6.106;2023-12-04T06:03:56;99976.09;;;20.82;46.66
58686;BME280;44465;53.206;-6.106;2023-12-04T06:06:22;99966.91;;;20.86;46.26
58686;BME280;44465;53.206;-6.106;2023-12-04T06:08:47;99973.41;;;20.82;46.32
58686;BME280;44465;53.206;-6.106;2023-12-04T06:11:13;99955.28;;;20.72;46.20
58686;BME280;44465;53.206;-6.106;2023-12-04T06:13:39;99962.81;;;20.80;46.25
58686;BME280;44465;53.206;-6.106;2023-12-04T06:16:04;99960.25;;;20.79;46.38
58686;BME280;44465;53.206;-6.106;2023-12-04T06:18:30;99978.56;;;20.85;46.13
58686;BME280;44465;53.206;-6.106;2023-12-04T06:20:56;99974.38;;;20.81;46.24
58686;BME280;44465;53.206;-6.106;2023-12-04T06:23:22;99922.56;;;20.41;46.07
58686;BME280;44465;53.206;-6.106;2023-12-04T06:25:48;99956.09;;;20.60;46.46
58686;BME280;44465;53.206;-6.106;2023-12-04T06:28:14;99929.72;;;20.41;46.25
58686;BME280;44465;53.206;-6.106;2023-12-04T06:30:40;99966.59;;;20.63;45.95
58686;BME280;44465;53.206;-6.106;2023-12-04T06:33:05;99995.78;;;20.81;46.36
58686;BME280;44465;53.206;-6.106;2023-12-04T06:35:31;99940.13;;;20.45;46.32
58686;BME280;44465;53.206;-6.106;2023-12-04T06:38:00;99987.75;;;20.81;46.45
58686;BME280;44465;53.206;-6.106;2023-12-04T06:40:29;99960.59;;;20.59;46.32
58686;BME280;44465;53.206;-6.106;2023-12-04T06:42:54;99960.78;;;20.56;46.28
58686;BME280;44465;53.206;-6.106;2023-12-04T06:45:20;99966.59;;;20.63;46.35
58686;BME280;44465;53.206;-6.106;2023-12-04T06:47:50;99964.53;;;20.54;46.33
58686;BME280;44465;53.206;-6.106;2023-12-04T06:50:15;99996.09;;;20.76;46.14
58686;BME280;44465;53.206;-6.106;2023-12-04T06:52:41;99948.16;;;20.45;46.43
58686;BME280;44465;53.206;-6.106;2023-12-04T06:55:07;99995.50;;;20.71;46.48
58686;BME280;44465;53.206;-6.106;2023-12-04T06:57:33;99979.44;;;20.58;46.06
58686;BME280;44465;53.206;-6.106;2023-12-04T06:59:59;99961.84;;;20.54;46.21
58686;BME280;44465;53.206;-6.106;2023-12-04T07:02:24;99950.72;;;20.47;46.30
58686;BME280;44465;53.206;-6.106;2023-12-04T07:04:50;99951.00;;;20.42;46.23
58686;BME280;44465;53.206;-6.106;2023-12-04T07:07:15;100012.13;;;20.76;46.16
58686;BME280;44465;53.206;-6.106;2023-12-04T07:09:41;99952.72;;;20.43;46.24
58686;BME280;44465;53.206;-6.106;2023-12-04T07:12:06;99986.50;;;20.59;46.19
58686;BME280;44465;53.206;-6.106;2023-12-04T07:14:32;100013.00;;;20.76;46.08
58686;BME280;44465;53.206;-6.106;2023-12-04T07:16:58;100019.78;;;20.82;46.04
58686;BME280;44465;53.206;-6.106;2023-12-04T07:19:25;99967.63;;;20.48;46.37
58686;BME280;44465;53.206;-6.106;2023-12-04T07:21:52;99983.06;;;20.57;46.17
58686;BME280;44465;53.206;-6.106;2023-12-04T07:24:18;99982.50;;;20.52;45.97
58686;BME280;44465;53.206;-6.106;2023-12-04T07:26:43;99991.09;;;20.57;46.09
58686;BME280;44465;53.206;-6.106;2023-12-04T07:29:09;99982.16;;;20.43;46.11
58686;BME280;44465;53.206;-6.106;2023-12-04T07:31:34;100011.97;;;20.65;46.35
58686;BME280;44465;53.206;-6.106;2023-12-04T07:34:00;100008.63;;;20.61;46.37
58686;BME280;44465;53.206;-6.106;2023-12-04T07:36:27;100023.13;;;20.71;46.33
58686;BME280;44465;53.206;-6.106;2023-12-04T07:38:53;99985.59;;;20.45;46.38
58686;BME280;44465;53.206;-6.106;2023-12-04T07:41:19;100044.06;;;20.79;46.14
58686;BME280;44465;53.206;-6.106;2023-12-04T07:43:45;99973.78;;;20.35;46.07
58686;BME280;44465;53.206;-6.106;2023-12-04T07:46:11;100033.72;;;20.73;46.14
58686;BME280;44465;53.206;-6.106;2023-12-04T07:48:39;100046.06;;;20.75;46.26
58686;BME280;44465;53.206;-6.106;2023-12-04T07:51:06;100023.84;;;20.60;46.17
58686;BME280;44465;53.206;-6.106;2023-12-04T07:53:31;100051.44;;;20.75;46.29
58686;BME280;44465;53.206;-6.106;2023-12-04T07:55:57;99998.00;;;20.46;46.36
58686;BME280;44465;53.206;-6.106;2023-12-04T07:58:25;100015.16;;;20.57;46.07
58686;BME280;44465;53.206;-6.106;2023-12-04T08:00:51;100020.50;;;20.57;46.06
58686;BME280;44465;53.206;-6.106;2023-12-04T08:03:16;100041.31;;;20.66;45.98
58686;BME280;44465;53.206;-6.106;2023-12-04T08:05:42;100037.22;;;20.60;46.15
58686;BME280;44465;53.206;-6.106;2023-12-04T08:08:08;100008.69;;;20.46;45.98
58686;BME280;44465;53.206;-6.106;2023-12-04T08:10:33;100025.09;;;20.55;46.22
58686;BME280;44465;53.206;-6.106;2023-12-04T08:12:59;100051.44;;;20.61;46.05
58686;BME280;44465;53.206;-6.106;2023-12-04T08:15:25;100006.53;;;20.39;46.22
58686;BME280;44465;53.206;-6.106;2023-12-04T08:17:50;100036.56;;;20.57;46.04
58686;BME280;44465;53.206;-6.106;2023-12-04T08:20:16;100061.75;;;20.67;46.38
58686;BME280;44465;53.206;-6.106;2023-12-04T08:22:42;100031.81;;;20.48;46.05
58686;BME280;44465;53.206;-6.106;2023-12-04T08:25:10;100041.91;;;20.57;46.10
58686;BME280;44465;53.206;-6.106;2023-12-04T08:27:35;100047.25;;;20.57;46.44
58686;BME280;44465;53.206;-6.106;2023-12-04T08:30:01;100015.97;;;20.30;46.41
58686;BME280;44465;53.206;-6.106;2023-12-04T08:32:27;100059.88;;;20.55;46.37
58686;BME280;44465;53.206;-6.106;2023-12-04T08:34:52;100077.69;;;20.69;46.16
58686;BME280;44465;53.206;-6.106;2023-12-04T08:37:19;100067.59;;;20.59;46.19
58686;BME280;44465;53.206;-6.106;2023-12-04T08:39:45;100028.09;;;20.36;46.11
58686;BME280;44465;53.206;-6.106;2023-12-04T08:42:11;100046.34;;;20.43;46.44
58686;BME280;44465;53.206;-6.106;2023-12-04T08:44:37;100078.00;;;20.64;45.87
58686;BME280;44465;53.206;-6.106;2023-12-04T08:47:04;100077.44;;;20.59;45.97
58686;BME280;44465;53.206;-6.106;2023-12-04T08:49:29;100031.66;;;20.36;45.95
58686;BME280;44465;53.206;-6.106;2023-12-04T08:51:55;100049.19;;;20.40;46.06
58686;BME280;44465;53.206;-6.106;2023-12-04T08:54:20;100099.59;;;20.75;46.18
58686;BME280;44465;53.206;-6.106;2023-12-04T08:56:46;100109.22;;;20.78;46.32
58686;BME280;44465;53.206;-6.106;2023-12-04T08:59:12;100035.28;;;20.35;46.26
58686;BME280;44465;53.206;-6.106;2023-12-04T09:01:39;100077.53;;;20.57;46.10
58686;BME280;44465;53.206;-6.106;2023-12-04T09:04:04;100078.09;;;20.63;46.13
58686;BME280;44465;53.206;-6.106;2023-12-04T09:06:30;100074.66;;;20.60;45.98
58686;BME280;44465;53.206;-6.106;2023-12-04T09:08:56;100031.06;;;20.31;45.91
58686;BME280;44465;53.206;-6.106;2023-12-04T09:11:21;100094.81;;;20.66;46.02
58686;BME280;44465;53.206;-6.106;2023-12-04T09:13:47;100081.94;;;20.58;45.92
58686;BME280;44465;53.206;-6.106;2023-12-04T09:16:12;100049.41;;;20.37;45.96
58686;BME280;44465;53.206;-6.106;2023-12-04T09:18:39;100057.97;;;20.42;46.14
58686;BME280;44465;53.206;-6.106;2023-12-04T09:21:04;100108.72;;;20.71;45.57
58686;BME280;44465;53.206;-6.106;2023-12-04T09:23:30;100099.75;;;20.72;45.82
58686;BME280;44465;53.206;-6.106;2023-12-04T09:25:56;100057.22;;;20.40;45.71
58686;BME280;44465;53.206;-6.106;2023-12-04T09:28:21;100050.38;;;20.36;45.90
58686;BME280;44465;53.206;-6.106;2023-12-04T09:30:47;100104.44;;;20.69;46.19
58686;BME280;44465;53.206;-6.106;2023-12-04T09:33:12;100109.59;;;20.72;45.51
58686;BME280;44465;53.206;-6.106;2023-12-04T09:35:38;100050.75;;;20.30;45.92
58686;BME280;44465;53.206;-6.106;2023-12-04T09:38:03;100090.72;;;20.60;45.88
58686;BME280;44465;53.206;-6.106;2023-12-04T09:40:29;100074.50;;;20.49;45.69
58686;BME280;44465;53.206;-6.106;2023-12-04T09:42:54;100064.88;;;20.46;45.96
58686;BME280;44465;53.206;-6.106;2023-12-04T09:45:20;100083.19;;;20.53;45.79
58686;BME280;44465;53.206;-6.106;2023-12-04T09:47:48;100096.25;;;20.57;45.67
58686;BME280;44465;53.206;-6.106;2023-12-04T09:50:16;100109.13;;;20.65;45.84
58686;BME280;44465;53.206;-6.106;2023-12-04T09:52:42;100087.75;;;20.51;46.09
58686;BME280;44465;53.206;-6.106;2023-12-04T09:55:08;100098.84;;;20.59;45.77
58686;BME280;44465;53.206;-6.106;2023-12-04T09:57:33;100093.88;;;20.53;46.02
58686;BME280;44465;53.206;-6.106;2023-12-04T10:00:00;100091.19;;;20.53;45.78
58686;BME280;44465;53.206;-6.106;2023-12-04T10:02:37;100097.50;;;20.52;46.03
58686;BME280;44465;53.206;-6.106;2023-12-04T10:05:03;100100.94;;;20.54;45.94
58686;BME280;44465;53.206;-6.106;2023-12-04T10:07:31;100101.34;;;20.48;45.68
58686;BME280;44465;53.206;-6.106;2023-12-04T10:09:56;100071.00;;;20.34;46.00
58686;BME280;44465;53.206;-6.106;2023-12-04T10:12:22;100114.03;;;20.58;45.80
58686;BME280;44465;53.206;-6.106;2023-12-04T10:15:11;100128.41;;;20.70;45.90
58686;BME280;44465;53.206;-6.106;2023-12-04T10:17:38;100147.75;;;20.75;45.71
58686;BME280;44465;53.206;-6.106;2023-12-04T10:20:14;100147.75;;;20.75;45.79
58686;BME280;44465;53.206;-6.106;2023-12-04T10:22:56;100079.19;;;20.31;45.50
58686;BME280;44465;53.206;-6.106;2023-12-04T10:25:23;100124.34;;;20.50;45.76
58686;BME280;44465;53.206;-6.106;2023-12-04T10:27:51;100120.81;;;20.50;45.69
58686;BME280;44465;53.206;-6.106;2023-12-04T10:30:24;100166.38;;;20.77;45.82
58686;BME280;44465;53.206;-6.106;2023-12-04T10:32:54;100169.28;;;20.74;45.70
58686;BME280;44465;53.206;-6.106;2023-12-04T10:35:20;100144.97;;;20.63;45.82
58686;BME280;44465;53.206;-6.106;2023-12-04T10:37:46;100147.19;;;20.56;45.97
58686;BME280;44465;53.206;-6.106;2023-12-04T10:40:11;100147.94;;;20.58;45.83
58686;BME280;44465;53.206;-6.106;2023-12-04T10:42:47;100145.06;;;20.61;45.69
58686;BME280;44465;53.206;-6.106;2023-12-04T10:45:13;100105.94;;;20.31;45.86
58686;BME280;44465;53.206;-6.106;2023-12-04T10:47:38;100159.69;;;20.70;45.88
58686;BME280;44465;53.206;-6.106;2023-12-04T10:50:04;100160.53;;;20.70;46.01
58686;BME280;44465;53.206;-6.106;2023-12-04T10:52:33;100126.16;;;20.50;45.66
58686;BME280;44465;53.206;-6.106;2023-12-04T10:54:59;100160.53;;;20.70;45.76
58686;BME280;44465;53.206;-6.106;2023-12-04T10:57:31;100167.59;;;20.71;45.47
58686;BME280;44465;53.206;-6.106;2023-12-04T11:00:02;100173.63;;;20.75;45.58
58686;BME280;44465;53.206;-6.106;2023-12-04T11:02:29;100147.84;;;20.59;45.55
58686;BME280;44465;53.206;-6.106;2023-12-04T11:05:00;100134.94;;;20.52;45.50
58686;BME280;44465;53.206;-6.106;2023-12-04T11:07:29;100156.22;;;20.68;45.64
58686;BME280;44465;53.206;-6.106;2023-12-04T11:09:55;100176.69;;;20.69;45.90
58686;BME280;44465;53.206;-6.106;2023-12-04T11:12:25;100156.81;;;20.58;45.66
58686;BME280;44465;53.206;-6.106;2023-12-04T11:14:56;100115.69;;;20.32;45.42
58686;BME280;44465;53.206;-6.106;2023-12-04T11:17:25;100129.81;;;20.49;45.92
58686;BME280;44465;53.206;-6.106;2023-12-04T11:19:59;100134.41;;;20.46;45.86
58686;BME280;44465;53.206;-6.106;2023-12-04T11:22:28;100179.88;;;20.75;45.67
58686;BME280;44465;53.206;-6.106;2023-12-04T11:24:55;100147.00;;;20.59;45.86
58686;BME280;44465;53.206;-6.106;2023-12-04T11:27:21;100181.25;;;20.67;46.14
58686;BME280;44465;53.206;-6.106;2023-12-04T11:29:48;100117.59;;;20.30;45.88
58686;BME280;44465;53.206;-6.106;2023-12-04T11:32:15;100174.00;;;20.69;45.66
58686;BME280;44465;53.206;-6.106;2023-12-04T11:34:49;100179.34;;;20.69;45.88
58686;BME280;44465;53.206;-6.106;2023-12-04T11:37:15;100150.22;;;20.50;45.89
58686;BME280;44465;53.206;-6.106;2023-12-04T11:39:41;100183.38;;;20.76;45.69
58686;BME280;44465;53.206;-6.106;2023-12-04T11:42:07;100140.22;;;20.53;45.92
58686;BME280;44465;53.206;-6.106;2023-12-04T11:44:32;100122.94;;;20.44;45.69
58686;BME280;44465;53.206;-6.106;2023-12-04T11:47:07;100145.47;;;20.55;45.49
58686;BME280;44465;53.206;-6.106;2023-12-04T11:49:33;100131.50;;;20.50;45.58
58686;BME280;44465;53.206;-6.106;2023-12-04T11:52:05;100120.38;;;20.43;45.79
58686;BME280;44465;53.206;-6.106;2023-12-04T11:57:26;100164.91;;;20.71;45.45
58686;BME280;44465;53.206;-6.106;2023-12-04T12:05:22;100170.88;;;20.76;45.62
58686;BME280;44465;53.206;-6.106;2023-12-04T12:07:48;100169.28;;;20.74;45.80
58686;BME280;44465;53.206;-6.106;2023-12-04T12:10:15;100140.13;;;20.55;45.59
58686;BME280;44465;53.206;-6.106;2023-12-04T12:12:42;100167.50;;;20.73;45.48
58686;BME280;44465;53.206;-6.106;2023-12-04T12:15:09;100124.47;;;20.49;45.54
58686;BME280;44465;53.206;-6.106;2023-12-04T12:17:35;100131.44;;;20.51;45.68
58686;BME280;44465;53.206;-6.106;2023-12-04T12:20:01;100092.69;;;20.29;45.51
58686;BME280;44465;53.206;-6.106;2023-12-04T12:22:29;100186.44;;;20.70;45.84
58686;BME280;44465;53.206;-6.106;2023-12-04T12:24:54;100151.38;;;20.60;45.48
58686;BME280;44465;53.206;-6.106;2023-12-04T12:27:20;100119.00;;;20.36;45.39
58686;BME280;44465;53.206;-6.106;2023-12-04T12:29:45;100189.50;;;20.78;45.65
58686;BME280;44465;53.206;-6.106;2023-12-04T12:32:11;100112.34;;;20.28;45.90
58686;BME280;44465;53.206;-6.106;2023-12-04T12:34:36;100190.72;;;20.72;45.66
58686;BME280;44465;53.206;-6.106;2023-12-04T12:37:03;100162.53;;;20.67;45.27
58686;BME280;44465;53.206;-6.106;2023-12-04T12:39:29;100198.41;;;20.79;45.45
58686;BME280;44465;53.206;-6.106;2023-12-04T12:41:55;100190.56;;;20.75;45.59
58686;BME280;44465;53.206;-6.106;2023-12-04T12:44:21;100164.38;;;20.66;45.93
58686;BME280;44465;53.206;-6.106;2023-12-04T12:46:50;100141.53;;;20.46;46.64
58686;BME280;44465;53.206;-6.106;2023-12-04T12:49:19;100168.00;;;20.65;47.66